SBOSBO LYS / LFLL
Speedbird OnlineSpeedbird Online LYS / LFLL

Lyon Saint-Exupéry Airport
08:39 13.5°C

Location Lyon, France
Latitude: 45.725556
Longitude: 5.081111
Web Airport Website | Wikipedia
Altitude 250 Meter / 821 Feet
Distance 739 KM / 459 Miles
from London.
Time Zone UTC +2 hours (Europe/Paris)
Codes IATA: LYS
ICAO: LFLL
Currency £1 equals EUR 1.15
Runways
RunwayLength (m)Surface
17L2670Asphalt
17R4000Asphalt
35L4000Asphalt
35R2670Asphalt
Radio
TypeDescriptionFrequency
A/DLyon approach136.075
ATISATIS126.175
GNDGND121.825
PFLTPREFLIGHT121.65
TWRTWR120.45
Live ATC
METAR LFLL 060600Z 22003KT 9999 FEW051 14/12 Q1029 NOSIG
TAF TAF LFLL 060500Z 0606/0712 18005KT CAVOK BECMG 0607/0609 36010KT TEMPO 0606/0612 BKN045 BECMG 0621/0624 VRB02KT BKN014 PROB30 TEMPO 0702/0708 0800 FG VV/// BECMG 0708/0710 18008KT CAVOK
Weather As Of 06 Oct 2022 08:39
Description Few clouds
Wind 6 km/h from South-West (220°)
Cloud Cover 20%
Precipitation Rain: none, Snow: none
Sunrise 07:43
Sunset 19:11
Lounges Mont Blanc Lounge, Terminal 1
Salon Solano, Terminal 2
Rotations During the last 90 days there were
155 flights from LHR
156 flights to LHR
1 flights to GVA


© 2017-2022 Speedbird Online